createdAt,value
2022-09-24T00:02:23.064Z,18.20
2022-09-24T00:04:49.909Z,18.92
2022-09-24T00:07:16.179Z,18.70
2022-09-24T00:09:42.440Z,17.58
2022-09-24T00:12:08.833Z,17.55
2022-09-24T00:14:35.805Z,17.50
2022-09-24T00:17:02.146Z,17.25
2022-09-24T00:19:28.387Z,17.30
2022-09-24T00:21:54.689Z,17.55
2022-09-24T00:24:20.949Z,18.20
2022-09-24T00:26:48.188Z,17.60
2022-09-24T00:29:14.405Z,16.88
2022-09-24T00:31:40.869Z,18.10
2022-09-24T00:34:07.325Z,17.00
2022-09-24T00:36:33.753Z,17.50
2022-09-24T00:39:00.177Z,16.50
2022-09-24T00:41:26.444Z,16.25
2022-09-24T00:43:52.994Z,17.25
2022-09-24T00:46:19.313Z,15.90
2022-09-24T00:48:45.773Z,15.63
2022-09-24T00:51:12.095Z,16.45
2022-09-24T00:53:38.368Z,15.73
2022-09-24T00:56:04.801Z,15.57
2022-09-24T00:58:31.085Z,15.00
2022-09-24T01:00:57.593Z,15.48
2022-09-24T01:03:24.189Z,14.48
2022-09-24T01:05:50.901Z,15.52
2022-09-24T01:08:17.271Z,15.18
2022-09-24T01:10:43.566Z,14.15
2022-09-24T01:13:11.505Z,14.70
2022-09-24T01:15:40.478Z,14.70
2022-09-24T01:18:06.776Z,14.48
2022-09-24T01:20:33.457Z,14.57
2022-09-24T01:22:59.724Z,13.85
2022-09-24T01:25:26.034Z,13.95
2022-09-24T01:27:52.412Z,14.43
2022-09-24T01:30:18.761Z,14.27
2022-09-24T01:32:45.057Z,14.52
2022-09-24T01:35:11.358Z,14.02
2022-09-24T01:37:37.783Z,14.75
2022-09-24T01:40:04.043Z,13.63
2022-09-24T01:42:30.317Z,13.50
2022-09-24T01:44:56.673Z,14.63
2022-09-24T01:47:22.946Z,13.70
2022-09-24T01:49:49.210Z,13.55
2022-09-24T01:52:15.588Z,13.88
2022-09-24T01:54:42.049Z,13.52
2022-09-24T01:57:08.335Z,13.15
2022-09-24T01:59:34.650Z,13.68
2022-09-24T02:02:01.012Z,12.63
2022-09-24T02:04:27.443Z,13.65
2022-09-24T02:06:53.711Z,13.57
2022-09-24T02:09:20.106Z,12.75
2022-09-24T02:11:46.442Z,13.60
2022-09-24T02:14:12.914Z,12.98
2022-09-24T02:16:39.472Z,12.70
2022-09-24T02:19:05.898Z,12.60
2022-09-24T02:21:32.938Z,12.40
2022-09-24T02:23:59.212Z,12.27
2022-09-24T02:26:25.593Z,12.75
2022-09-24T02:28:51.858Z,12.35
2022-09-24T02:31:18.282Z,12.63
2022-09-24T02:33:44.877Z,12.20
2022-09-24T02:36:11.152Z,11.75
2022-09-24T02:38:37.412Z,12.40
2022-09-24T02:41:03.750Z,12.27
2022-09-24T02:43:30.098Z,11.75
2022-09-24T02:45:56.458Z,11.40
2022-09-24T02:48:22.840Z,11.85
2022-09-24T02:50:49.349Z,11.50
2022-09-24T02:53:15.727Z,12.45
2022-09-24T02:55:42.072Z,10.93
2022-09-24T02:58:08.470Z,11.95
2022-09-24T03:00:34.922Z,11.45
2022-09-24T03:03:01.365Z,11.95
2022-09-24T03:05:27.734Z,10.90
2022-09-24T03:07:54.119Z,11.23
2022-09-24T03:10:20.511Z,11.23
2022-09-24T03:12:46.854Z,11.07
2022-09-24T03:15:13.130Z,10.70
2022-09-24T03:17:39.397Z,12.20
2022-09-24T03:20:05.690Z,10.52
2022-09-24T03:22:31.978Z,10.93
2022-09-24T03:24:58.254Z,10.52
2022-09-24T03:27:24.541Z,12.02
2022-09-24T03:29:50.962Z,10.35
2022-09-24T03:32:17.403Z,11.10
2022-09-24T03:34:43.657Z,11.00
2022-09-24T03:37:09.916Z,10.32
2022-09-24T03:39:36.309Z,10.50
2022-09-24T03:42:02.880Z,10.50
2022-09-24T03:44:29.302Z,10.90
2022-09-24T03:46:55.643Z,10.70
2022-09-24T03:49:22.092Z,11.00
2022-09-24T03:51:48.550Z,10.45
2022-09-24T03:54:14.827Z,10.35
2022-09-24T03:56:42.081Z,10.43
2022-09-24T03:59:08.403Z,10.48
2022-09-24T04:01:34.749Z,10.48
2022-09-24T04:04:01.112Z,9.90
2022-09-24T04:06:27.504Z,10.00
2022-09-24T04:08:53.799Z,10.32
2022-09-24T04:11:20.089Z,9.85
2022-09-24T04:13:46.722Z,10.10
2022-09-24T04:16:19.234Z,10.18
2022-09-24T04:18:45.852Z,10.40
2022-09-24T04:21:12.444Z,9.98
2022-09-24T04:23:38.726Z,9.70
2022-09-24T04:26:05.062Z,10.30
2022-09-24T04:28:31.445Z,9.73
2022-09-24T04:30:58.022Z,9.77
2022-09-24T04:33:24.438Z,9.77
2022-09-24T04:35:50.709Z,9.23
2022-09-24T04:38:17.025Z,9.75
2022-09-24T04:40:44.560Z,9.20
2022-09-24T04:43:11.532Z,9.35
2022-09-24T04:45:37.815Z,9.48
2022-09-24T04:48:04.068Z,8.93
2022-09-24T04:50:30.340Z,8.90
2022-09-24T04:52:56.678Z,9.40
2022-09-24T04:55:24.569Z,9.20
2022-09-24T04:57:50.847Z,9.63
2022-09-24T05:00:18.403Z,8.93
2022-09-24T05:02:44.848Z,8.85
2022-09-24T05:05:11.271Z,8.63
2022-09-24T05:07:37.508Z,8.40
2022-09-24T05:10:03.765Z,8.50
2022-09-24T05:12:30.180Z,9.77
2022-09-24T05:14:56.460Z,8.32
2022-09-24T05:17:22.718Z,8.98
2022-09-24T05:19:48.984Z,8.55
2022-09-24T05:22:15.397Z,8.82
2022-09-24T05:24:41.719Z,8.30
2022-09-24T05:27:07.987Z,8.25
2022-09-24T05:29:34.334Z,8.32
2022-09-24T05:32:00.785Z,8.35
2022-09-24T05:34:27.388Z,8.50
2022-09-24T05:36:53.734Z,8.10
2022-09-24T05:39:20.257Z,8.57
2022-09-24T05:41:46.500Z,8.48
2022-09-24T05:44:12.807Z,8.27
2022-09-24T05:46:39.121Z,7.68
2022-09-24T05:49:05.629Z,7.93
2022-09-24T05:51:31.939Z,8.27
2022-09-24T05:53:58.293Z,8.38
2022-09-24T05:56:24.537Z,7.70
2022-09-24T05:58:50.969Z,8.25
2022-09-24T06:01:17.436Z,7.78
2022-09-24T06:03:43.869Z,8.38
2022-09-24T06:06:10.422Z,8.02
2022-09-24T06:08:36.850Z,8.80
2022-09-24T06:11:03.132Z,8.02
2022-09-24T06:13:29.478Z,8.75
2022-09-24T06:15:55.763Z,8.40
2022-09-24T06:18:22.050Z,7.72
2022-09-24T06:20:48.329Z,7.88
2022-09-24T06:23:14.682Z,8.13
2022-09-24T06:25:40.965Z,7.80
2022-09-24T06:28:07.202Z,7.63
2022-09-24T06:30:33.714Z,8.32
2022-09-24T06:33:00.016Z,7.68
2022-09-24T06:35:26.486Z,7.50
2022-09-24T06:37:52.845Z,8.55
2022-09-24T06:40:19.333Z,7.85
2022-09-24T06:42:45.737Z,8.20
2022-09-24T06:45:12.014Z,7.47
2022-09-24T06:47:38.333Z,7.38
2022-09-24T06:50:04.626Z,7.50
2022-09-24T06:52:31.170Z,7.35
2022-09-24T06:54:57.659Z,7.22
2022-09-24T06:57:28.673Z,7.43
2022-09-24T06:59:55.379Z,7.28
2022-09-24T07:02:21.687Z,8.07
2022-09-24T07:04:48.098Z,6.93
2022-09-24T07:07:14.351Z,7.38
2022-09-24T07:09:40.703Z,7.60
2022-09-24T07:12:07.007Z,7.03
2022-09-24T07:14:33.269Z,7.28
2022-09-24T07:17:00.182Z,7.07
2022-09-24T07:19:26.665Z,6.28
2022-09-24T07:21:53.027Z,7.10
2022-09-24T07:24:19.377Z,7.63
2022-09-24T07:26:45.684Z,7.63
2022-09-24T07:29:12.144Z,7.70
2022-09-24T07:31:39.175Z,6.85
2022-09-24T07:34:05.656Z,7.15
2022-09-24T07:36:32.014Z,6.75
2022-09-24T07:38:58.281Z,6.35
2022-09-24T07:41:24.570Z,7.57
2022-09-24T07:43:50.866Z,6.78
2022-09-24T07:46:17.433Z,7.22
2022-09-24T07:48:43.779Z,6.82
2022-09-24T07:51:10.053Z,7.80
2022-09-24T07:53:36.351Z,7.00
2022-09-24T07:56:02.678Z,7.72
2022-09-24T07:58:29.187Z,6.68
2022-09-24T08:00:55.784Z,6.78
2022-09-24T08:03:22.300Z,6.90
2022-09-24T08:05:48.621Z,7.00
2022-09-24T08:08:15.061Z,6.53
2022-09-24T08:10:41.481Z,7.25
2022-09-24T08:13:07.742Z,7.05
2022-09-24T08:15:34.050Z,6.80
2022-09-24T08:18:00.324Z,6.72
2022-09-24T08:20:26.672Z,6.68
2022-09-24T08:22:52.979Z,7.18
2022-09-24T08:25:19.305Z,6.93
2022-09-24T08:27:46.279Z,6.65
2022-09-24T08:30:12.522Z,6.20
2022-09-24T08:32:38.818Z,6.78
2022-09-24T08:35:05.122Z,7.30
2022-09-24T08:37:31.593Z,7.07
2022-09-24T08:39:57.847Z,6.30
2022-09-24T08:42:24.126Z,7.25
2022-09-24T08:44:50.421Z,6.70
2022-09-24T08:47:16.988Z,6.70
2022-09-24T08:49:43.301Z,6.38
2022-09-24T08:52:09.594Z,6.72
2022-09-24T08:54:35.883Z,7.13
2022-09-24T08:57:02.479Z,7.57
2022-09-24T08:59:28.898Z,7.95
2022-09-24T09:01:56.183Z,11.23
2022-09-24T09:04:22.482Z,12.13
2022-09-24T09:06:48.789Z,12.68
2022-09-24T09:09:15.100Z,13.50
2022-09-24T09:11:41.719Z,18.02
2022-09-24T09:14:08.209Z,16.38
2022-09-24T09:16:34.639Z,19.00
2022-09-24T09:19:01.661Z,20.35
2022-09-24T09:21:29.050Z,20.02
2022-09-24T09:23:55.812Z,20.92
2022-09-24T09:26:22.151Z,22.30
2022-09-24T09:28:48.421Z,23.30
2022-09-24T09:31:14.820Z,23.52
2022-09-24T09:33:41.281Z,24.90
2022-09-24T09:36:07.777Z,26.10
2022-09-24T09:38:34.291Z,26.70
2022-09-24T09:41:00.714Z,27.15
2022-09-24T09:43:27.102Z,26.77
2022-09-24T09:45:53.485Z,26.92
2022-09-24T09:48:19.894Z,28.55
2022-09-24T09:50:46.261Z,29.23
2022-09-24T09:53:12.734Z,28.50
2022-09-24T09:55:40.362Z,30.38
2022-09-24T09:58:06.788Z,31.80
2022-09-24T10:00:33.184Z,32.38
2022-09-24T10:02:59.640Z,35.00
2022-09-24T10:05:27.465Z,35.53
2022-09-24T10:07:54.067Z,33.90
2022-09-24T10:10:20.303Z,34.28
2022-09-24T10:12:46.858Z,30.17
2022-09-24T10:15:13.248Z,26.27
2022-09-24T10:17:39.694Z,25.40
2022-09-24T10:20:05.950Z,22.70
2022-09-24T10:22:32.385Z,22.73
2022-09-24T10:24:58.790Z,52.17
2022-09-24T10:27:25.494Z,44.05
2022-09-24T10:29:52.126Z,110.72
2022-09-24T10:32:18.487Z,100.30
2022-09-24T10:34:44.915Z,75.05
2022-09-24T10:37:11.340Z,83.25
2022-09-24T10:39:37.598Z,94.93
2022-09-24T10:42:04.295Z,99.47
2022-09-24T10:44:30.615Z,82.85
2022-09-24T10:46:57.206Z,65.15
2022-09-24T10:49:23.647Z,55.50
2022-09-24T10:51:49.985Z,53.08
2022-09-24T10:54:16.245Z,80.50
2022-09-24T10:56:46.445Z,92.25
2022-09-24T10:59:13.161Z,69.30
2022-09-24T11:01:39.530Z,49.60
2022-09-24T11:04:05.958Z,47.65
2022-09-24T11:06:32.222Z,45.40
2022-09-24T11:08:58.794Z,61.83
2022-09-24T11:11:25.131Z,53.97
2022-09-24T11:13:51.854Z,44.22
2022-09-24T11:16:19.345Z,37.28
2022-09-24T11:18:45.729Z,32.05
2022-09-24T11:21:12.185Z,23.63
2022-09-24T11:23:38.493Z,19.42
2022-09-24T11:26:04.842Z,15.57
2022-09-24T11:28:31.149Z,14.00
2022-09-24T11:30:57.727Z,12.50
2022-09-24T11:33:24.166Z,11.32
2022-09-24T11:35:50.453Z,10.15
2022-09-24T11:38:16.738Z,10.50
2022-09-24T11:40:43.500Z,9.52
2022-09-24T11:43:10.017Z,9.23
2022-09-24T11:45:36.440Z,9.75
2022-09-24T11:48:02.732Z,11.73
2022-09-24T11:50:29.176Z,40.17
2022-09-24T11:52:55.635Z,94.15
2022-09-24T11:55:21.956Z,115.82
2022-09-24T11:57:48.281Z,114.65
2022-09-24T12:00:14.576Z,111.72
2022-09-24T12:02:41.007Z,105.93
2022-09-24T12:05:07.285Z,103.88
2022-09-24T12:07:33.796Z,100.90
2022-09-24T12:10:00.134Z,98.22
2022-09-24T12:12:26.814Z,93.78
2022-09-24T12:14:53.122Z,90.60
2022-09-24T12:17:19.352Z,91.82
2022-09-24T12:19:45.655Z,91.20
2022-09-24T12:22:12.004Z,127.38
2022-09-24T12:24:38.309Z,187.43
2022-09-24T12:27:04.790Z,245.45
2022-09-24T12:29:31.068Z,295.42
2022-09-24T12:31:57.872Z,314.38
2022-09-24T12:36:59.649Z,236.27
2022-09-24T12:39:26.140Z,163.25
2022-09-24T12:41:52.454Z,110.20
2022-09-24T12:44:22.261Z,75.25
2022-09-24T12:46:49.033Z,51.10
2022-09-24T12:49:15.605Z,37.13
2022-09-24T12:51:42.480Z,27.25
2022-09-24T12:54:08.837Z,22.27
2022-09-24T12:56:35.199Z,17.30
2022-09-24T12:59:01.472Z,15.93
2022-09-24T13:01:27.870Z,13.68
2022-09-24T13:03:54.249Z,11.30
2022-09-24T13:06:20.610Z,12.55
2022-09-24T13:08:47.055Z,74.80
2022-09-24T13:11:13.332Z,102.25
2022-09-24T13:13:39.779Z,119.28
2022-09-24T13:16:06.219Z,122.38
2022-09-24T13:18:32.614Z,116.32
2022-09-24T13:20:58.922Z,107.63
2022-09-24T13:23:25.197Z,107.50
2022-09-24T13:25:51.471Z,105.78
2022-09-24T13:28:17.730Z,103.82
2022-09-24T13:30:44.359Z,97.97
2022-09-24T13:33:10.717Z,99.68
2022-09-24T13:35:37.075Z,99.78
2022-09-24T13:38:03.412Z,93.75
2022-09-24T13:40:30.901Z,98.05
2022-09-24T13:42:57.596Z,112.93
2022-09-24T13:45:23.982Z,138.35
2022-09-24T13:47:50.265Z,139.00
2022-09-24T13:50:16.608Z,140.07
2022-09-24T13:52:43.003Z,140.10
2022-09-24T13:55:09.276Z,135.13
2022-09-24T13:57:35.638Z,130.57
2022-09-24T14:00:02.387Z,129.38
2022-09-24T14:02:28.760Z,125.25
2022-09-24T14:04:55.467Z,119.25
2022-09-24T14:07:21.862Z,122.57
2022-09-24T14:09:48.822Z,116.85
2022-09-24T14:12:15.390Z,112.05
2022-09-24T14:14:41.922Z,112.03
2022-09-24T14:17:08.381Z,109.22
2022-09-24T14:19:34.752Z,107.13
2022-09-24T14:22:02.473Z,104.55
2022-09-24T14:24:28.897Z,104.63
2022-09-24T14:26:55.336Z,102.03
2022-09-24T14:29:21.624Z,98.95
2022-09-24T14:31:48.027Z,97.78
2022-09-24T14:34:14.526Z,96.38
2022-09-24T14:36:41.057Z,186.70
2022-09-24T14:39:07.486Z,247.38
2022-09-24T14:41:33.967Z,267.30
2022-09-24T14:44:00.277Z,249.40
2022-09-24T14:46:26.740Z,238.38
2022-09-24T14:48:53.449Z,231.23
2022-09-24T14:51:19.948Z,219.68
2022-09-24T14:53:46.288Z,217.75
2022-09-24T14:56:12.773Z,212.45
2022-09-24T14:58:39.032Z,209.40
2022-09-24T15:01:05.354Z,203.43
2022-09-24T15:03:31.819Z,208.57
2022-09-24T15:05:58.359Z,193.77
2022-09-24T15:08:24.762Z,200.73
2022-09-24T15:10:51.106Z,189.02
2022-09-24T15:13:17.749Z,185.73
2022-09-24T15:15:44.717Z,192.57
2022-09-24T15:18:12.181Z,311.88
2022-09-24T15:20:38.490Z,328.05
2022-09-24T15:23:04.852Z,316.83
2022-09-24T15:25:32.357Z,307.40
2022-09-24T15:27:58.693Z,302.42
2022-09-24T15:30:24.972Z,291.85
2022-09-24T15:32:51.405Z,286.60
2022-09-24T15:35:17.709Z,279.60
2022-09-24T15:37:44.054Z,275.45
2022-09-24T15:40:10.731Z,269.90
2022-09-24T15:42:37.242Z,270.15
2022-09-24T15:45:03.550Z,265.98
2022-09-24T15:47:29.805Z,257.70
2022-09-24T15:49:56.142Z,296.15
2022-09-24T15:52:22.559Z,329.60
2022-09-24T15:54:49.181Z,361.13
2022-09-24T15:57:15.549Z,363.08
2022-09-24T15:59:42.134Z,352.35
2022-09-24T16:02:08.652Z,343.77
2022-09-24T16:04:35.086Z,338.17
2022-09-24T16:07:01.412Z,343.70
2022-09-24T16:09:27.725Z,328.02
2022-09-24T16:11:53.970Z,317.60
2022-09-24T16:14:20.406Z,316.80
2022-09-24T16:16:46.711Z,304.58
2022-09-24T16:19:13.069Z,292.05
2022-09-24T16:21:39.647Z,291.70
2022-09-24T16:24:05.926Z,281.63
2022-09-24T16:26:33.328Z,281.23
2022-09-24T16:28:59.618Z,306.35
2022-09-24T16:31:25.987Z,355.10
2022-09-24T16:33:52.558Z,385.15
2022-09-24T16:36:19.000Z,377.00
2022-09-24T16:38:45.789Z,371.70
2022-09-24T16:41:12.152Z,358.60
2022-09-24T16:43:38.632Z,354.80
2022-09-24T16:46:05.199Z,351.70
2022-09-24T16:48:31.668Z,343.42
2022-09-24T16:50:57.939Z,336.45
2022-09-24T16:53:24.381Z,345.20
2022-09-24T16:55:51.687Z,385.35
2022-09-24T16:58:17.961Z,423.98
2022-09-24T17:00:44.196Z,426.75
2022-09-24T17:03:10.616Z,426.55
2022-09-24T17:05:39.905Z,407.00
2022-09-24T17:08:06.221Z,406.13
2022-09-24T17:10:32.479Z,398.30
2022-09-24T17:12:58.787Z,389.70
2022-09-24T17:15:25.053Z,388.38
2022-09-24T17:17:51.416Z,384.35
2022-09-24T17:20:17.734Z,371.27
2022-09-24T17:22:44.326Z,370.33
2022-09-24T17:25:10.773Z,402.38
2022-09-24T17:27:37.190Z,437.60
2022-09-24T17:30:03.680Z,439.08
2022-09-24T17:32:29.998Z,439.23
2022-09-24T17:34:56.308Z,429.17
2022-09-24T17:37:22.637Z,427.80
2022-09-24T17:39:48.996Z,408.85
2022-09-24T17:42:15.455Z,404.05
2022-09-24T17:44:42.010Z,425.65
2022-09-24T17:47:08.694Z,445.77
2022-09-24T17:49:35.059Z,445.15
2022-09-24T17:52:01.375Z,437.45
2022-09-24T17:54:27.895Z,430.23
2022-09-24T17:56:54.202Z,429.38
2022-09-24T17:59:25.579Z,412.48
2022-09-24T18:01:52.928Z,405.30
2022-09-24T18:04:20.588Z,403.67
2022-09-24T18:06:47.257Z,399.25
2022-09-24T18:09:13.550Z,405.08
2022-09-24T18:11:39.808Z,430.85
2022-09-24T18:14:06.433Z,448.63
2022-09-24T18:16:32.715Z,440.70
2022-09-24T18:18:59.138Z,435.13
2022-09-24T18:21:25.426Z,433.98
2022-09-24T18:23:51.719Z,419.15
2022-09-24T18:26:18.200Z,410.75
2022-09-24T18:28:44.509Z,399.25
2022-09-24T18:31:11.020Z,397.73
2022-09-24T18:33:37.469Z,392.73
2022-09-24T18:36:03.855Z,387.48
2022-09-24T18:38:30.290Z,378.80
2022-09-24T18:41:01.857Z,370.52
2022-09-24T18:43:28.144Z,373.45
2022-09-24T18:45:54.569Z,360.95
2022-09-24T18:48:20.973Z,362.45
2022-09-24T18:50:47.234Z,357.25
2022-09-24T18:53:13.506Z,345.20
2022-09-24T18:55:39.846Z,345.10
2022-09-24T18:58:06.286Z,343.20
2022-09-24T19:00:33.094Z,337.02
2022-09-24T19:02:59.470Z,326.05
2022-09-24T19:05:25.963Z,325.85
2022-09-24T19:07:52.716Z,316.73
2022-09-24T19:10:19.356Z,318.70
2022-09-24T19:12:45.621Z,311.30
2022-09-24T19:15:11.877Z,303.92
2022-09-24T19:17:38.186Z,303.27
2022-09-24T19:20:04.668Z,298.85
2022-09-24T19:22:30.999Z,273.17
2022-09-24T19:24:57.515Z,271.17
2022-09-24T19:27:23.816Z,315.10
2022-09-24T19:29:50.102Z,359.77
2022-09-24T19:32:16.689Z,347.48
2022-09-24T19:34:42.937Z,342.05
2022-09-24T19:37:09.383Z,332.45
2022-09-24T19:39:35.706Z,333.17
2022-09-24T19:42:01.976Z,327.88
2022-09-24T19:44:28.240Z,313.85
2022-09-24T19:46:54.572Z,316.55
2022-09-24T19:49:20.892Z,306.45
2022-09-24T19:51:47.216Z,304.05
2022-09-24T19:54:13.568Z,303.00
2022-09-24T19:56:40.135Z,313.80
2022-09-24T19:59:06.568Z,381.80
2022-09-24T20:01:33.220Z,414.60
2022-09-24T20:03:59.642Z,401.30
2022-09-24T20:06:26.162Z,398.60
2022-09-24T20:08:52.671Z,384.67
2022-09-24T20:11:19.027Z,379.17
2022-09-24T20:13:45.303Z,370.92
2022-09-24T20:16:11.755Z,360.48
2022-09-24T20:18:38.090Z,359.10
2022-09-24T20:21:04.429Z,349.33
2022-09-24T20:23:30.690Z,390.13
2022-09-24T20:25:57.058Z,420.77
2022-09-24T20:28:23.343Z,458.05
2022-09-24T20:30:49.717Z,461.90
2022-09-24T20:33:16.239Z,456.08
2022-09-24T20:35:42.852Z,455.10
2022-09-24T20:38:09.252Z,455.58
2022-09-24T20:40:35.514Z,526.42
2022-09-24T20:43:03.025Z,543.20
2022-09-24T20:45:30.731Z,539.35
2022-09-24T20:47:57.066Z,542.33
2022-09-24T20:50:23.744Z,535.50
2022-09-24T20:52:50.125Z,534.63
2022-09-24T20:55:16.432Z,528.17
2022-09-24T20:57:42.844Z,539.95
2022-09-24T21:00:09.340Z,517.17
2022-09-24T21:02:39.240Z,551.10
2022-09-24T21:05:07.722Z,556.42
2022-09-24T21:07:34.091Z,552.10
2022-09-24T21:10:00.577Z,552.28
2022-09-24T21:12:26.892Z,543.25
2022-09-24T21:14:53.136Z,532.15
2022-09-24T21:17:19.477Z,529.72
2022-09-24T21:19:49.002Z,522.53
2022-09-24T21:22:15.358Z,516.35
2022-09-24T21:24:41.914Z,506.08
2022-09-24T21:27:08.342Z,524.65
2022-09-24T21:29:34.613Z,547.78
2022-09-24T21:32:01.057Z,567.03
2022-09-24T21:34:27.325Z,557.25
2022-09-24T21:36:53.626Z,564.15
2022-09-24T21:39:20.130Z,555.53
2022-09-24T21:41:46.518Z,552.95
2022-09-24T21:44:13.148Z,545.28
2022-09-24T21:46:39.615Z,537.25
2022-09-24T21:49:06.621Z,534.75
2022-09-24T21:51:33.202Z,526.78
2022-09-24T21:53:59.597Z,518.78
2022-09-24T21:56:26.150Z,517.03
2022-09-24T21:58:53.414Z,482.67
2022-09-24T22:01:19.964Z,489.63
2022-09-24T22:03:46.342Z,519.50
2022-09-24T22:06:12.688Z,521.90
2022-09-24T22:08:39.008Z,520.47
2022-09-24T22:11:05.468Z,509.90
2022-09-24T22:13:31.838Z,506.60
2022-09-24T22:15:58.102Z,496.30
2022-09-24T22:18:24.504Z,498.33
2022-09-24T22:20:50.907Z,491.88
2022-09-24T22:23:18.564Z,498.55
2022-09-24T22:25:44.974Z,517.78
2022-09-24T22:28:11.295Z,527.20
2022-09-24T22:30:37.851Z,521.65
2022-09-24T22:33:04.401Z,514.45
2022-09-24T22:35:30.677Z,504.98
2022-09-24T22:37:57.056Z,516.45
2022-09-24T22:40:23.608Z,508.05
2022-09-24T22:42:50.929Z,503.08
2022-09-24T22:45:17.230Z,501.90
2022-09-24T22:47:43.706Z,494.00
2022-09-24T22:50:10.030Z,480.75
2022-09-24T22:52:36.805Z,479.17
2022-09-24T22:55:03.132Z,473.38
2022-09-24T22:57:30.820Z,473.83
2022-09-24T22:59:57.122Z,469.00
2022-09-24T23:02:23.528Z,457.88
2022-09-24T23:04:50.190Z,452.10
2022-09-24T23:07:16.480Z,443.83
2022-09-24T23:09:42.808Z,438.65
2022-09-24T23:12:09.153Z,431.88
2022-09-24T23:14:35.482Z,435.98
2022-09-24T23:17:01.802Z,421.90
2022-09-24T23:19:28.347Z,414.85
2022-09-24T23:21:54.758Z,411.92
2022-09-24T23:24:21.137Z,401.80
2022-09-24T23:26:47.648Z,404.25
2022-09-24T23:29:14.535Z,392.20
2022-09-24T23:31:40.878Z,394.73
2022-09-24T23:34:07.170Z,394.02
2022-09-24T23:36:34.017Z,384.60
2022-09-24T23:39:00.330Z,378.20
2022-09-24T23:41:26.636Z,379.48
2022-09-24T23:43:52.897Z,365.30
2022-09-24T23:46:19.347Z,363.30
2022-09-24T23:48:46.430Z,361.20
2022-09-24T23:51:12.904Z,350.85
2022-09-24T23:53:39.327Z,350.75
2022-09-24T23:56:05.734Z,346.73
2022-09-24T23:58:32.284Z,340.30
